Time;durP1;ratioP1;P1;durP2;ratioP2;P2;SDS_P1;SDS_P2;PMS_P1;PMS_P2;Temp;Humidity;BMP_temperature;BMP_pressure;BME280_temperature;BME280_humidity;BME280_pressure;Samples;Min_cycle;Max_cycle;Signal;HPM_P1;HPM_P2
2021/12/14 00:00:27;;;;;;;24.70;15.82;;;8.90;99.90;;;;;;5136355;27;20036;-68
2021/12/14 00:02:54;;;;;;;22.40;15.95;;;8.90;99.90;;;;;;5137293;27;20031;-68
2021/12/14 00:05:22;;;;;;;20.60;15.05;;;8.80;99.90;;;;;;5137164;27;20082;-68
2021/12/14 00:07:48;;;;;;;22.02;16.40;;;8.90;99.90;;;;;;5136670;27;20039;-68
2021/12/14 00:13:02;;;;;;;22.95;14.32;;;8.90;99.90;;;;;;5137284;27;20092;-68
2021/12/14 00:15:28;;;;;;;21.67;15.18;;;8.80;99.90;;;;;;5137109;27;20052;-68
2021/12/14 00:17:57;;;;;;;20.80;14.88;;;8.90;99.90;;;;;;5135257;27;20104;-68
2021/12/14 00:20:30;;;;;;;22.58;15.40;;;8.90;99.90;;;;;;5137132;27;20118;-68
2021/12/14 00:25:38;;;;;;;25.30;14.88;;;8.80;99.90;;;;;;5136745;27;20051;-67
2021/12/14 00:28:11;;;;;;;23.38;16.25;;;8.80;99.90;;;;;;5137005;27;20066;-68
2021/12/14 00:30:39;;;;;;;23.15;15.25;;;8.80;99.90;;;;;;5136874;27;20046;-68
2021/12/14 00:33:12;;;;;;;23.45;15.55;;;8.80;99.90;;;;;;5136589;27;20612;-68
2021/12/14 00:35:39;;;;;;;21.77;15.50;;;8.80;99.90;;;;;;5136744;27;20100;-68
2021/12/14 00:38:05;;;;;;;20.92;15.32;;;8.70;99.90;;;;;;5135154;27;20039;-68
2021/12/14 00:40:36;;;;;;;24.85;15.63;;;8.80;99.90;;;;;;5136365;27;20039;-68
2021/12/14 00:43:03;;;;;;;22.63;15.35;;;8.80;99.90;;;;;;5135285;27;20047;-68
2021/12/14 00:45:32;;;;;;;25.13;17.05;;;8.80;99.90;;;;;;5136236;27;20039;-68
2021/12/14 00:48:00;;;;;;;23.65;15.30;;;8.70;99.90;;;;;;5134693;27;20086;-68
2021/12/14 00:50:28;;;;;;;21.63;14.88;;;8.70;99.90;;;;;;5135812;27;20043;-68
2021/12/14 00:52:54;;;;;;;21.67;14.30;;;8.70;99.90;;;;;;5135990;27;20496;-68
2021/12/14 00:55:25;;;;;;;22.10;14.93;;;8.70;99.90;;;;;;5136372;27;20042;-68
2021/12/14 00:57:52;;;;;;;21.15;14.50;;;8.60;99.90;;;;;;5134568;27;20519;-68
2021/12/14 01:00:21;;;;;;;20.20;14.57;;;8.70;99.90;;;;;;5135869;27;20043;-68
2021/12/14 01:02:48;;;;;;;25.50;15.60;;;8.70;99.90;;;;;;5136043;27;20041;-68
2021/12/14 01:05:22;;;;;;;18.73;15.30;;;8.70;99.90;;;;;;5136141;27;20035;-68
2021/12/14 01:07:48;;;;;;;19.58;15.15;;;8.60;99.90;;;;;;5135689;27;20066;-68
2021/12/14 01:10:29;;;;;;;22.92;15.40;;;8.60;99.90;;;;;;5135891;27;20046;-68
2021/12/14 01:13:01;;;;;;;19.70;14.13;;;8.60;99.90;;;;;;5134491;27;20077;-68
2021/12/14 01:15:50;;;;;;;20.42;14.60;;;8.60;99.90;;;;;;5135563;27;20043;-67
2021/12/14 01:18:31;;;;;;;20.73;13.77;;;8.60;99.90;;;;;;5135788;27;20062;-68
2021/12/14 01:21:08;;;;;;;20.17;13.98;;;8.70;99.90;;;;;;5134528;27;20039;-68
2021/12/14 01:23:35;;;;;;;20.67;14.15;;;8.60;99.90;;;;;;5134563;27;20043;-68
2021/12/14 01:26:08;;;;;;;19.02;14.07;;;8.60;99.90;;;;;;5133758;27;20118;-68
2021/12/14 01:28:35;;;;;;;25.13;15.38;;;8.60;99.90;;;;;;5135558;27;20096;-68
2021/12/14 01:31:30;;;;;;;20.50;14.27;;;8.60;99.90;;;;;;5135452;27;20035;-68
2021/12/14 01:34:03;;;;;;;19.65;14.07;;;8.70;99.90;;;;;;5135211;27;20518;-68
2021/12/14 01:42:08;;;;;;;22.73;14.38;;;8.70;99.90;;;;;;5080556;27;20048;-69
2021/12/14 01:44:40;;;;;;;21.13;15.00;;;8.70;99.90;;;;;;5133970;27;20480;-68
2021/12/14 01:47:19;;;;;;;21.13;14.20;;;8.70;99.90;;;;;;5134800;27;20085;-68
2021/12/14 01:49:45;;;;;;;21.02;15.55;;;8.70;99.90;;;;;;5133769;27;20039;-68
2021/12/14 01:52:17;;;;;;;25.60;16.42;;;8.60;99.90;;;;;;5135389;27;20035;-68
2021/12/14 01:54:47;;;;;;;26.52;15.35;;;8.60;99.90;;;;;;5134928;27;20035;-68
2021/12/14 01:57:16;;;;;;;24.90;14.85;;;8.70;99.90;;;;;;5133564;27;20045;-68
2021/12/14 01:59:45;;;;;;;22.48;15.15;;;8.60;99.90;;;;;;5134339;27;20047;-68
2021/12/14 02:02:24;;;;;;;23.63;15.75;;;8.60;99.90;;;;;;5134476;27;20529;-68
2021/12/14 02:04:54;;;;;;;22.50;15.82;;;8.60;99.90;;;;;;5135154;27;20070;-68
2021/12/14 02:07:21;;;;;;;27.30;16.85;;;8.60;99.90;;;;;;5132855;27;20456;-68
2021/12/14 02:09:58;;;;;;;24.02;15.45;;;8.60;99.90;;;;;;5134520;27;20488;-68
2021/12/14 02:12:27;;;;;;;25.88;15.82;;;8.60;99.90;;;;;;5134908;27;20039;-68
2021/12/14 02:15:00;;;;;;;21.95;15.82;;;8.60;99.90;;;;;;5134677;27;20408;-68
2021/12/14 02:17:26;;;;;;;25.23;16.67;;;8.60;99.90;;;;;;5132982;27;20043;-68
2021/12/14 02:19:51;;;;;;;22.83;15.52;;;8.60;99.90;;;;;;5134621;27;20034;-68
2021/12/14 02:22:18;;;;;;;24.95;16.90;;;8.60;99.90;;;;;;5134389;27;20039;-68
2021/12/14 02:24:49;;;;;;;22.33;15.95;;;8.60;99.90;;;;;;5134373;27;20039;-68
2021/12/14 02:27:15;;;;;;;27.80;17.67;;;8.60;99.90;;;;;;5132638;27;20087;-68
2021/12/14 02:29:44;;;;;;;27.25;17.42;;;8.60;99.90;;;;;;5134559;27;20118;-68
2021/12/14 02:32:19;;;;;;;25.90;18.83;;;8.70;99.90;;;;;;5134921;27;20046;-68
2021/12/14 02:35:01;;;;;;;30.58;20.83;;;8.70;99.90;;;;;;5134298;27;20043;-68
2021/12/14 02:37:44;;;;;;;28.08;17.63;;;8.70;99.90;;;;;;5132899;27;20486;-68
2021/12/14 02:40:20;;;;;;;36.33;21.23;;;8.60;99.90;;;;;;5134877;27;20059;-68
2021/12/14 02:42:51;;;;;;;32.90;21.50;;;8.60;99.90;;;;;;5134080;27;20296;-68
2021/12/14 02:45:21;;;;;;;30.33;20.65;;;8.60;99.90;;;;;;5134485;27;20035;-68
2021/12/14 02:47:47;;;;;;;30.88;20.40;;;8.60;99.90;;;;;;5132746;28;20110;-68
2021/12/14 02:50:14;;;;;;;31.10;20.23;;;8.60;99.90;;;;;;5134520;28;20168;-68
2021/12/14 02:52:40;;;;;;;31.35;20.30;;;8.60;99.90;;;;;;5134022;27;20492;-68
2021/12/14 02:55:23;;;;;;;33.90;21.95;;;8.60;99.90;;;;;;5134379;27;20050;-68
2021/12/14 02:57:52;;;;;;;33.20;21.37;;;8.60;99.90;;;;;;5134017;27;20081;-68
2021/12/14 03:00:31;;;;;;;32.35;21.58;;;8.60;99.90;;;;;;5134318;27;20279;-68
2021/12/14 03:02:58;;;;;;;32.67;20.98;;;8.50;99.90;;;;;;5133111;28;20396;-68
2021/12/14 03:05:30;;;;;;;32.08;21.30;;;8.50;99.90;;;;;;5133918;27;20042;-68
2021/12/14 03:08:12;;;;;;;35.80;21.98;;;8.50;99.90;;;;;;5132688;28;20399;-68
2021/12/14 03:10:55;;;;;;;36.80;22.55;;;8.50;99.90;;;;;;5134097;27;20035;-68
2021/12/14 03:13:24;;;;;;;37.37;22.23;;;8.50;99.90;;;;;;5137575;27;20042;-68
2021/12/14 03:15:54;;;;;;;34.20;21.35;;;8.50;99.90;;;;;;5137616;27;20576;-68
2021/12/14 03:18:29;;;;;;;35.63;22.42;;;8.50;99.90;;;;;;5136556;27;20055;-68
2021/12/14 03:21:05;;;;;;;38.47;23.98;;;8.50;99.90;;;;;;5138283;27;20066;-68
2021/12/14 03:23:38;;;;;;;39.15;22.45;;;8.40;99.90;;;;;;5137991;27;20046;-68
2021/12/14 03:26:07;;;;;;;36.17;22.65;;;8.50;99.90;;;;;;5137449;27;20046;-68
2021/12/14 03:28:34;;;;;;;35.58;21.60;;;8.40;99.90;;;;;;5137459;27;20125;-68
2021/12/14 03:31:09;;;;;;;36.25;23.95;;;8.40;99.90;;;;;;5138303;27;20043;-68
2021/12/14 03:33:42;;;;;;;37.35;23.42;;;8.40;99.90;;;;;;5138035;27;20031;-68
2021/12/14 03:36:12;;;;;;;34.10;22.30;;;8.40;99.90;;;;;;5136443;27;20042;-68
2021/12/14 03:38:39;;;;;;;39.05;23.92;;;8.40;99.90;;;;;;5136530;27;20042;-68
2021/12/14 03:41:13;;;;;;;36.70;23.42;;;8.40;99.90;;;;;;5137729;27;20484;-68
2021/12/14 03:43:49;;;;;;;36.20;22.42;;;8.40;99.90;;;;;;5137533;27;20422;-68
2021/12/14 03:46:15;;;;;;;38.10;23.52;;;8.40;99.90;;;;;;5137091;27;20484;-68
2021/12/14 03:48:41;;;;;;;36.47;22.73;;;8.40;99.90;;;;;;5137305;27;20078;-68
2021/12/14 03:51:07;;;;;;;37.83;22.45;;;8.40;99.90;;;;;;5137436;27;20090;-68
2021/12/14 03:53:33;;;;;;;38.65;24.70;;;8.40;99.90;;;;;;5137856;27;20038;-68
2021/12/14 03:56:03;;;;;;;34.95;23.33;;;8.50;99.90;;;;;;5137048;27;20066;-68
2021/12/14 03:58:37;;;;;;;40.45;24.63;;;8.40;99.90;;;;;;5136144;27;20390;-68
2021/12/14 04:01:22;;;;;;;40.13;25.33;;;8.40;99.90;;;;;;5137154;27;20120;-68
2021/12/14 04:03:51;;;;;;;38.60;23.83;;;8.40;99.90;;;;;;5137181;27;20087;-68
2021/12/14 04:06:19;;;;;;;38.58;23.20;;;8.40;99.90;;;;;;5135349;27;20401;-68
2021/12/14 04:08:45;;;;;;;38.92;24.55;;;8.40;99.90;;;;;;5135774;27;20050;-68
2021/12/14 04:11:13;;;;;;;35.85;22.48;;;8.40;99.90;;;;;;5136949;27;20141;-68
2021/12/14 04:13:47;;;;;;;40.15;25.38;;;8.40;99.90;;;;;;5137250;27;20050;-68
2021/12/14 04:16:16;;;;;;;38.35;24.35;;;8.40;99.90;;;;;;5136523;27;20045;-68
2021/12/14 04:18:42;;;;;;;39.88;24.85;;;8.40;99.90;;;;;;5136577;27;20079;-68
2021/12/14 04:21:09;;;;;;;36.00;23.30;;;8.30;99.90;;;;;;5135382;27;20039;-68
2021/12/14 04:23:42;;;;;;;38.58;24.70;;;8.40;99.90;;;;;;5134341;27;20036;-68
2021/12/14 04:26:11;;;;;;;40.35;24.63;;;8.40;99.90;;;;;;5134951;27;20043;-68
2021/12/14 04:28:45;;;;;;;37.72;24.02;;;8.30;99.90;;;;;;5136882;27;20039;-68
2021/12/14 04:31:11;;;;;;;36.47;23.15;;;8.40;99.90;;;;;;5135263;27;20083;-68
2021/12/14 04:33:40;;;;;;;40.65;24.90;;;8.40;99.90;;;;;;5136455;27;20050;-68
2021/12/14 04:36:11;;;;;;;47.65;24.75;;;8.40;99.90;;;;;;5136032;27;20493;-68
2021/12/14 04:38:47;;;;;;;40.33;25.23;;;8.40;99.90;;;;;;5136761;27;20058;-68
2021/12/14 04:52:13;;;;;;;43.50;24.73;;;8.40;99.90;;;;;;5135124;27;20051;-68
2021/12/14 04:55:02;;;;;;;38.75;24.13;;;8.40;99.90;;;;;;5134797;27;20047;-68
2021/12/14 04:57:31;;;;;;;37.75;23.50;;;8.40;99.90;;;;;;5135807;27;20090;-68
2021/12/14 05:00:14;;;;;;;38.63;23.50;;;8.40;99.90;;;;;;5135968;27;20042;-68
2021/12/14 05:02:40;;;;;;;44.55;26.85;;;8.40;99.90;;;;;;5136304;27;20041;-68
2021/12/14 05:05:07;;;;;;;37.75;23.33;;;8.40;99.90;;;;;;5134668;27;20043;-68
2021/12/14 05:10:00;;;;;;;40.60;24.63;;;8.40;99.90;;;;;;5135676;27;20085;-68
2021/12/14 05:12:30;;;;;;;37.80;22.40;;;8.50;99.90;;;;;;5135773;27;20042;-68
2021/12/14 05:14:58;;;;;;;41.38;25.27;;;8.50;99.90;;;;;;5135571;27;20085;-68
2021/12/14 05:17:32;;;;;;;43.47;24.67;;;8.50;99.90;;;;;;5135494;27;20037;-68
2021/12/14 05:19:59;;;;;;;41.53;25.25;;;8.50;99.90;;;;;;5135518;27;20404;-68
2021/12/14 05:22:29;;;;;;;36.28;24.35;;;8.50;99.90;;;;;;5135475;27;20516;-68
2021/12/14 05:25:02;;;;;;;45.13;26.67;;;8.50;99.90;;;;;;5135694;27;20545;-68
2021/12/14 05:27:35;;;;;;;38.50;24.60;;;8.50;99.90;;;;;;5135131;27;20067;-68
2021/12/14 05:30:16;;;;;;;41.88;26.65;;;8.50;99.90;;;;;;5134268;27;20464;-68
2021/12/14 05:32:43;;;;;;;44.65;26.67;;;8.40;99.90;;;;;;5135665;27;20080;-68
2021/12/14 05:35:11;;;;;;;38.83;24.85;;;8.50;99.90;;;;;;5135349;27;20058;-68
2021/12/14 05:37:45;;;;;;;43.42;24.88;;;8.50;99.90;;;;;;5134700;27;20097;-68
2021/12/14 05:40:20;;;;;;;40.65;25.17;;;8.50;99.90;;;;;;5135371;27;20110;-68
2021/12/14 05:45:31;;;;;;;48.22;27.98;;;8.40;99.90;;;;;;5135038;27;20043;-68
2021/12/14 05:47:58;;;;;;;49.17;26.90;;;8.40;99.90;;;;;;5135090;27;20031;-68
2021/12/14 05:50:42;;;;;;;49.95;27.10;;;8.40;99.90;;;;;;5135234;27;20085;-68
2021/12/14 05:53:16;;;;;;;44.63;26.67;;;8.50;99.90;;;;;;5135269;27;20200;-68
2021/12/14 05:55:41;;;;;;;;;;;8.40;99.90;;;;;;5133962;27;20039;-68
2021/12/14 05:58:14;;;;;;;47.28;27.70;;;8.40;99.90;;;;;;5133378;27;19919;-68
2021/12/14 06:00:44;;;;;;;47.40;27.70;;;8.50;99.90;;;;;;5134691;27;20031;-68
2021/12/14 06:03:22;;;;;;;49.08;28.08;;;8.40;99.90;;;;;;5134930;27;20031;-68
2021/12/14 06:05:48;;;;;;;49.63;29.95;;;8.40;99.90;;;;;;5135083;27;20035;-68
2021/12/14 06:08:19;;;;;;;47.00;28.25;;;8.40;99.90;;;;;;5134591;27;20515;-68
2021/12/14 06:10:45;;;;;;;49.47;28.67;;;8.40;99.90;;;;;;5134572;27;20518;-68
2021/12/14 06:13:10;;;;;;;54.47;30.50;;;8.50;99.90;;;;;;5134375;27;20039;-68
2021/12/14 06:15:36;;;;;;;50.90;28.88;;;8.50;99.90;;;;;;5134377;27;20392;-68
2021/12/14 06:18:02;;;;;;;56.38;31.00;;;8.40;99.90;;;;;;5134805;27;20126;-68
2021/12/14 06:20:28;;;;;;;54.72;30.10;;;8.50;99.90;;;;;;5133515;27;20158;-68
2021/12/14 06:22:54;;;;;;;51.95;29.52;;;8.50;99.90;;;;;;5134471;27;20035;-68
2021/12/14 06:25:26;;;;;;;51.20;30.48;;;8.40;99.90;;;;;;5134307;27;20454;-68
2021/12/14 06:27:55;;;;;;;54.70;29.27;;;8.50;99.90;;;;;;5134487;27;20071;-68
2021/12/14 06:30:25;;;;;;;47.85;28.75;;;8.40;99.90;;;;;;5134527;27;20031;-68
2021/12/14 06:32:54;;;;;;;51.58;30.10;;;8.50;99.90;;;;;;5134728;27;20050;-68
2021/12/14 06:35:23;;;;;;;52.35;30.27;;;8.50;99.90;;;;;;5134785;27;20035;-68
2021/12/14 06:38:21;;;;;;;49.72;29.40;;;8.50;99.90;;;;;;5132519;27;20035;-68
2021/12/14 06:41:13;;;;;;;45.88;27.98;;;8.50;99.90;;;;;;5133372;27;20159;-68
2021/12/14 06:43:55;;;;;;;53.78;31.65;;;8.50;99.90;;;;;;5133340;28;20120;-68
2021/12/14 06:46:28;;;;;;;48.78;29.08;;;8.50;99.90;;;;;;5134287;27;20497;-68
2021/12/14 06:49:12;;;;;;;54.92;31.15;;;8.50;99.90;;;;;;5141133;27;20043;-68
2021/12/14 06:51:49;;;;;;;52.15;31.52;;;8.50;99.90;;;;;;5140962;27;20171;-68
2021/12/14 06:54:19;;;;;;;55.08;29.13;;;8.50;99.90;;;;;;5140059;27;20043;-68
2021/12/14 06:56:54;;;;;;;53.33;32.85;;;8.50;99.90;;;;;;5140553;27;20073;-68
2021/12/14 06:59:20;;;;;;;58.63;33.22;;;8.50;99.90;;;;;;5139636;27;20050;-68
2021/12/14 07:01:51;;;;;;;55.67;31.45;;;8.50;99.90;;;;;;5140989;27;20062;-68
2021/12/14 07:04:29;;;;;;;57.72;31.50;;;8.50;99.90;;;;;;5139676;27;20071;-68
2021/12/14 07:07:02;;;;;;;58.80;29.98;;;8.50;99.90;;;;;;5140506;27;20058;-68
2021/12/14 07:09:38;;;;;;;47.03;30.90;;;8.50;99.90;;;;;;5140748;27;20043;-68
2021/12/14 07:12:09;;;;;;;55.20;31.65;;;8.50;99.90;;;;;;5139530;27;20039;-68
2021/12/14 07:14:53;;;;;;;57.28;31.98;;;8.50;99.90;;;;;;5140942;27;20061;-68
2021/12/14 07:17:32;;;;;;;56.92;33.42;;;8.50;99.90;;;;;;5139358;27;20425;-68
2021/12/14 07:20:06;;;;;;;62.95;34.22;;;8.50;99.90;;;;;;5139379;27;20072;-68
2021/12/14 07:22:45;;;;;;;55.58;32.17;;;8.50;99.90;;;;;;5140961;27;20046;-68
2021/12/14 07:25:19;;;;;;;53.97;31.33;;;8.50;99.90;;;;;;5140897;27;20156;-69
2021/12/14 07:27:47;;;;;;;55.65;33.50;;;8.50;99.90;;;;;;5140832;27;20046;-68
2021/12/14 07:30:24;;;;;;;58.35;34.03;;;8.50;99.90;;;;;;5137746;27;20039;-68
2021/12/14 07:32:54;;;;;;;65.57;36.22;;;8.50;99.90;;;;;;5129156;27;20085;-68
2021/12/14 07:35:27;;;;;;;60.50;35.75;;;8.50;99.90;;;;;;5127567;27;20040;-68
2021/12/14 07:38:00;;;;;;;63.38;33.50;;;8.50;99.90;;;;;;5131447;27;20035;-68
2021/12/14 07:40:35;;;;;;;61.30;36.00;;;8.50;99.90;;;;;;5129710;27;20074;-68
2021/12/14 07:43:15;;;;;;;66.15;35.17;;;8.50;99.90;;;;;;5128700;27;20039;-68
2021/12/14 07:45:42;;;;;;;66.85;37.08;;;8.40;99.90;;;;;;5123503;27;20111;-68
2021/12/14 07:48:07;;;;;;;65.10;37.47;;;8.40;99.90;;;;;;5118847;28;20047;-68
2021/12/14 07:50:40;;;;;;;66.30;36.17;;;8.40;99.90;;;;;;5120390;28;20059;-68
2021/12/14 07:53:06;;;;;;;68.67;36.73;;;8.50;99.90;;;;;;5119772;27;20564;-68
2021/12/14 07:55:39;;;;;;;71.28;38.45;;;8.50;99.90;;;;;;5119804;28;20071;-68
2021/12/14 07:58:05;;;;;;;74.30;37.53;;;8.50;99.90;;;;;;5126966;27;20076;-68
2021/12/14 08:00:35;;;;;;;77.10;40.28;;;8.50;99.90;;;;;;5137208;27;20065;-68
2021/12/14 08:03:04;;;;;;;71.32;38.85;;;8.40;99.90;;;;;;5137074;27;20042;-68
2021/12/14 08:05:35;;;;;;;73.03;37.95;;;8.50;99.90;;;;;;5137110;27;20118;-68
2021/12/14 08:08:33;;;;;;;70.63;38.47;;;8.50;99.90;;;;;;5135913;27;20147;-68
2021/12/14 08:11:47;;;;;;;77.70;39.88;;;8.50;99.90;;;;;;5135981;27;20049;-68
2021/12/14 08:13:59;;;;;;;78.65;40.00;;;8.40;99.90;;;;;;5127476;27;20051;-68
2021/12/14 08:16:26;;;;;;;72.47;40.60;;;8.40;99.90;;;;;;5133192;27;20027;-68
2021/12/14 08:18:52;;;;;;;81.45;44.00;;;8.40;99.90;;;;;;5124169;27;20531;-68
2021/12/14 08:21:22;;;;;;;83.05;43.13;;;8.40;99.90;;;;;;5136923;27;20035;-68
2021/12/14 08:24:04;;;;;;;80.30;44.60;;;8.50;99.90;;;;;;5136606;27;20423;-68
2021/12/14 08:26:35;;;;;;;88.57;42.33;;;8.50;99.90;;;;;;5134790;27;20394;-68
2021/12/14 08:29:07;;;;;;;85.35;43.83;;;8.50;99.90;;;;;;5118243;27;20043;-68
2021/12/14 08:31:41;;;;;;;92.32;45.55;;;8.50;99.90;;;;;;5136313;27;20122;-68
2021/12/14 08:34:12;;;;;;;84.28;43.47;;;8.50;99.90;;;;;;5135544;27;20039;-69
2021/12/14 08:36:49;;;;;;;91.88;44.58;;;8.50;99.90;;;;;;5136276;27;20077;-68
2021/12/14 08:39:20;;;;;;;86.20;42.92;;;8.50;99.90;;;;;;5136491;27;20074;-68
2021/12/14 08:41:56;;;;;;;92.30;46.60;;;8.50;99.90;;;;;;5136429;27;20057;-70
2021/12/14 08:44:40;;;;;;;89.20;44.95;;;8.50;99.90;;;;;;5136275;27;20039;-70
2021/12/14 08:47:11;;;;;;;93.30;44.17;;;8.60;99.90;;;;;;5135824;27;20104;-70
2021/12/14 08:49:38;;;;;;;89.10;45.60;;;8.50;99.90;;;;;;5135037;27;20050;-70
2021/12/14 08:52:06;;;;;;;85.32;44.17;;;8.50;99.90;;;;;;5135098;27;20039;-70
2021/12/14 08:54:33;;;;;;;91.57;45.17;;;8.50;99.90;;;;;;5136114;27;20114;-70
2021/12/14 08:57:23;;;;;;;88.50;47.05;;;8.60;99.90;;;;;;5134488;27;20043;-71
2021/12/14 08:59:52;;;;;;;74.78;38.58;;;8.50;99.90;;;;;;5134603;27;20489;-71
2021/12/14 09:02:19;;;;;;;92.40;43.88;;;8.50;99.90;;;;;;5135819;27;20043;-71
2021/12/14 09:04:53;;;;;;;89.10;43.95;;;8.50;99.90;;;;;;5134394;27;20114;-71
2021/12/14 09:07:24;;;;;;;95.70;45.47;;;8.60;99.90;;;;;;5134117;27;20046;-71
2021/12/14 09:09:50;;;;;;;94.75;44.00;;;8.60;99.90;;;;;;5135408;27;20085;-71
2021/12/14 09:12:24;;;;;;;86.95;44.83;;;8.60;99.90;;;;;;5135492;27;20039;-70
2021/12/14 09:14:53;;;;;;;100.28;45.28;;;8.60;99.90;;;;;;5136051;27;20046;-71
2021/12/14 09:17:22;;;;;;;92.13;42.80;;;8.60;99.90;;;;;;5135375;27;20035;-70
2021/12/14 09:20:00;;;;;;;95.07;43.78;;;8.60;99.90;;;;;;5134923;27;20038;-70
2021/12/14 09:22:34;;;;;;;94.68;46.72;;;8.70;99.90;;;;;;5135943;27;20039;-71
2021/12/14 09:25:05;;;;;;;95.30;46.65;;;8.70;99.90;;;;;;5133935;27;20043;-71
2021/12/14 09:27:33;;;;;;;90.43;45.03;;;8.70;99.90;;;;;;5134277;27;20133;-70
2021/12/14 09:29:59;;;;;;;86.95;43.45;;;8.70;99.90;;;;;;5135707;27;20050;-71
2021/12/14 09:32:28;;;;;;;86.57;44.30;;;8.70;99.90;;;;;;5135324;27;20045;-71
2021/12/14 09:34:57;;;;;;;83.78;43.20;;;8.70;99.90;;;;;;5135381;27;20072;-71
2021/12/14 09:37:26;;;;;;;89.55;41.85;;;8.80;99.90;;;;;;5134721;27;20047;-71
2021/12/14 09:39:57;;;;;;;84.07;42.67;;;8.80;99.90;;;;;;5135276;27;20050;-70
2021/12/14 09:42:28;;;;;;;92.35;42.60;;;8.70;99.90;;;;;;5133816;27;20039;-70
2021/12/14 09:44:56;;;;;;;86.93;43.58;;;8.80;99.90;;;;;;5134104;27;20047;-70
2021/12/14 09:47:26;;;;;;;92.65;44.28;;;8.80;99.90;;;;;;5133871;27;20437;-71
2021/12/14 09:49:53;;;;;;;83.82;42.47;;;8.80;99.90;;;;;;5133673;27;20043;-71
2021/12/14 09:52:39;;;;;;;85.15;41.28;;;8.80;99.90;;;;;;5134937;27;20035;-71
2021/12/14 09:55:12;;;;;;;93.18;44.08;;;8.80;99.90;;;;;;5135111;27;20035;-71
2021/12/14 09:57:43;;;;;;;87.25;42.92;;;8.80;99.90;;;;;;5115981;27;20035;-71
2021/12/14 10:00:31;;;;;;;81.80;40.55;;;8.80;99.90;;;;;;5135165;27;20114;-71
2021/12/14 10:02:58;;;;;;;82.85;41.75;;;8.90;99.90;;;;;;5133803;27;20122;-71
2021/12/14 10:05:36;;;;;;;84.45;43.10;;;8.80;99.90;;;;;;5134608;27;20039;-71
2021/12/14 10:08:13;;;;;;;86.97;43.20;;;8.80;99.90;;;;;;5134706;27;20050;-71
2021/12/14 10:10:40;;;;;;;83.90;43.00;;;8.90;99.90;;;;;;5134128;27;20035;-71
2021/12/14 10:13:06;;;;;;;89.43;43.67;;;8.90;99.90;;;;;;5135106;27;20469;-71
2021/12/14 10:15:46;;;;;;;78.47;39.50;;;8.90;99.90;;;;;;5133706;27;20094;-71
2021/12/14 10:18:18;;;;;;;89.95;41.80;;;8.90;99.90;;;;;;5132756;27;20080;-71
2021/12/14 10:21:01;;;;;;;88.07;43.50;;;8.90;99.90;;;;;;5134129;27;20073;-70
2021/12/14 10:23:28;;;;;;;84.20;41.50;;;8.90;99.90;;;;;;5134006;27;20106;-71
2021/12/14 10:25:55;;;;;;;84.40;42.85;;;9.00;99.90;;;;;;5132685;27;20054;-71
2021/12/14 10:28:23;;;;;;;83.55;42.90;;;8.90;99.90;;;;;;5120182;27;20050;-71
2021/12/14 10:31:00;;;;;;;91.10;43.20;;;8.90;99.90;;;;;;5132237;27;20078;-72
2021/12/14 10:33:28;;;;;;;84.88;43.80;;;8.90;99.90;;;;;;5132921;27;20043;-72
2021/12/14 10:36:16;;;;;;;83.50;40.88;;;8.90;99.90;;;;;;5115250;27;20057;-72
2021/12/14 10:39:02;;;;;;;88.00;43.45;;;8.90;99.90;;;;;;5120881;27;20050;-72
2021/12/14 10:44:11;;;;;;;83.50;41.28;;;8.90;99.90;;;;;;5133087;27;20047;-71
2021/12/14 10:46:46;;;;;;;81.35;40.38;;;9.00;99.90;;;;;;5132425;28;20053;-71
2021/12/14 10:49:17;;;;;;;81.25;39.53;;;9.00;99.90;;;;;;5119687;27;20036;-71
2021/12/14 10:51:46;;;;;;;75.07;38.42;;;9.00;99.90;;;;;;5134360;27;20126;-71
2021/12/14 10:54:15;;;;;;;79.63;39.40;;;9.00;99.90;;;;;;5132828;27;20560;-72
2021/12/14 10:56:53;;;;;;;82.10;38.92;;;9.00;99.90;;;;;;5132654;28;20039;-71
2021/12/14 10:59:23;;;;;;;85.43;38.50;;;9.00;99.90;;;;;;5101166;28;20054;-71
2021/12/14 11:01:50;;;;;;;73.30;38.38;;;9.00;99.90;;;;;;5134066;27;20461;-71
2021/12/14 11:04:38;;;;;;;75.65;37.15;;;9.10;99.90;;;;;;5134511;27;20067;-71
2021/12/14 11:07:08;;;;;;;77.38;37.00;;;9.10;99.90;;;;;;5133628;27;20129;-71
2021/12/14 11:09:42;;;;;;;72.20;35.67;;;9.10;99.90;;;;;;5133812;27;20043;-70
2021/12/14 11:12:28;;;;;;;77.25;39.05;;;9.10;99.90;;;;;;5132553;28;20047;-71
2021/12/14 11:15:03;;;;;;;65.97;35.05;;;9.10;99.90;;;;;;5133863;27;20047;-71
2021/12/14 11:20:17;;;;;;;69.05;36.00;;;9.10;99.90;;;;;;5133952;28;20043;-71
2021/12/14 11:22:56;;;;;;;72.65;36.75;;;9.10;99.90;;;;;;5133613;27;20511;-71
2021/12/14 11:25:26;;;;;;;70.60;36.05;;;9.10;99.90;;;;;;5133364;27;20428;-71
2021/12/14 11:28:03;;;;;;;70.13;34.60;;;9.10;99.90;;;;;;5132298;28;20053;-71
2021/12/14 11:30:49;;;;;;;70.65;34.78;;;9.10;99.90;;;;;;5133981;27;20039;-71
2021/12/14 11:33:20;;;;;;;65.63;33.70;;;9.10;99.90;;;;;;5133883;27;20557;-70
2021/12/14 11:36:03;;;;;;;66.70;35.30;;;9.20;99.90;;;;;;5137036;27;20039;-71
2021/12/14 11:38:34;;;;;;;66.53;34.58;;;9.20;99.90;;;;;;5122950;27;20122;-70
2021/12/14 11:41:31;;;;;;;65.22;32.50;;;9.10;99.90;;;;;;5122183;27;20078;-71
2021/12/14 11:44:08;;;;;;;65.03;34.38;;;9.10;99.90;;;;;;5103147;27;20053;-71
2021/12/14 11:46:51;;;;;;;58.85;31.25;;;9.10;99.90;;;;;;5136950;27;20106;-71
2021/12/14 11:49:18;;;;;;;68.25;32.67;;;9.20;99.90;;;;;;5122643;27;20034;-70
2021/12/14 11:51:44;;;;;;;61.15;31.08;;;9.10;99.90;;;;;;5137570;27;20042;-71
2021/12/14 11:54:10;;;;;;;67.38;32.28;;;9.10;99.90;;;;;;5136051;27;20118;-70
2021/12/14 11:56:36;;;;;;;67.97;32.40;;;9.10;99.90;;;;;;5136878;27;20156;-70
2021/12/14 11:59:06;;;;;;;66.95;32.92;;;9.20;99.90;;;;;;5136099;27;20118;-70
2021/12/14 12:01:36;;;;;;;62.40;31.50;;;9.20;99.90;;;;;;5137147;27;20429;-71
2021/12/14 12:04:08;;;;;;;68.95;33.42;;;9.20;99.90;;;;;;5137380;27;20049;-70
2021/12/14 12:09:31;;;;;;;64.32;32.38;;;9.20;99.90;;;;;;5135115;27;20049;-71
2021/12/14 12:12:03;;;;;;;62.42;31.13;;;9.20;99.90;;;;;;5116378;27;20073;-70
2021/12/14 12:14:43;;;;;;;61.75;31.58;;;9.20;99.90;;;;;;5114334;27;20043;-71
2021/12/14 12:17:29;;;;;;;64.72;31.67;;;9.20;99.90;;;;;;5134881;27;20072;-70
2021/12/14 12:20:04;;;;;;;62.38;30.08;;;9.20;99.90;;;;;;5135209;27;20386;-70
2021/12/14 12:22:35;;;;;;;62.63;30.05;;;9.20;99.90;;;;;;5136849;27;20039;-70
2021/12/14 12:25:03;;;;;;;65.47;31.45;;;9.20;99.90;;;;;;5136833;27;20042;-71
2021/12/14 12:27:36;;;;;;;69.18;32.80;;;9.20;99.90;;;;;;5136528;27;20039;-71
2021/12/14 12:30:30;;;;;;;64.97;31.23;;;9.20;99.90;;;;;;5135155;27;20518;-71
2021/12/14 12:32:58;;;;;;;68.30;33.03;;;9.20;99.90;;;;;;5135775;27;20050;-70
2021/12/14 12:35:32;;;;;;;68.75;32.03;;;9.30;99.90;;;;;;5135492;27;20442;-70
2021/12/14 12:38:15;;;;;;;66.28;31.17;;;9.30;99.90;;;;;;5126944;27;20058;-71
2021/12/14 12:40:50;;;;;;;74.80;32.03;;;9.20;99.90;;;;;;5134974;27;20045;-71
2021/12/14 12:43:25;;;;;;;74.70;34.13;;;9.20;99.90;;;;;;5134963;27;20039;-71
2021/12/14 12:46:07;;;;;;;73.13;33.70;;;9.20;99.90;;;;;;5135274;27;20039;-70
2021/12/14 12:48:50;;;;;;;74.60;33.63;;;9.20;99.90;;;;;;5136406;27;20039;-71
2021/12/14 12:51:59;;;;;;;77.15;34.08;;;9.20;99.90;;;;;;5135008;27;20130;-71
2021/12/14 12:54:27;;;;;;;73.57;32.67;;;9.20;99.90;;;;;;5110969;27;20047;-71
2021/12/14 12:57:11;;;;;;;72.15;33.55;;;9.20;99.90;;;;;;5135628;27;20039;-71
2021/12/14 12:59:47;;;;;;;78.20;33.63;;;9.30;99.90;;;;;;5119933;27;20083;-72
2021/12/14 13:02:24;;;;;;;75.57;34.25;;;9.30;99.90;;;;;;5136300;27;20095;-71
2021/12/14 13:04:56;;;;;;;81.25;35.20;;;9.30;99.90;;;;;;5136080;27;20043;-71
2021/12/14 13:07:31;;;;;;;74.15;34.92;;;9.20;99.90;;;;;;5135283;27;20054;-71
2021/12/14 13:10:22;;;;;;;87.43;35.53;;;9.30;99.90;;;;;;5122596;27;20058;-71
2021/12/14 13:12:57;;;;;;;80.00;34.10;;;9.30;99.90;;;;;;5134624;27;20417;-71
2021/12/14 13:15:33;;;;;;;81.13;34.17;;;9.30;99.90;;;;;;5136061;27;20121;-70
2021/12/14 13:18:41;;;;;;;79.95;34.28;;;9.30;99.90;;;;;;5135203;27;20068;-71
2021/12/14 13:21:27;;;;;;;71.10;32.28;;;9.30;99.90;;;;;;5055510;28;20037;-71
2021/12/14 13:24:05;;;;;;;76.95;33.97;;;9.30;99.90;;;;;;5055817;28;20048;-71
2021/12/14 13:26:47;;;;;;;82.30;33.92;;;9.30;99.90;;;;;;5109875;27;20046;-71
2021/12/14 13:29:12;;;;;;;76.85;34.03;;;9.30;99.90;;;;;;5135389;27;20051;-70
2021/12/14 13:31:42;;;;;;;76.15;32.30;;;9.20;99.90;;;;;;5134028;27;20123;-71
2021/12/14 13:34:15;;;;;;;70.10;31.33;;;9.20;99.90;;;;;;5134127;27;20488;-71
2021/12/14 13:36:43;;;;;;;72.45;30.00;;;9.30;99.90;;;;;;5133861;27;20043;-70
2021/12/14 13:39:10;;;;;;;72.45;30.60;;;9.30;99.90;;;;;;5135177;27;20083;-71
2021/12/14 13:41:58;;;;;;;58.40;28.02;;;9.30;99.90;;;;;;5135252;27;20114;-71